sim
Sign-in with your pilot id or email,
or register
Callsign
Passwort

Schedule Details

Flight Number: DLH2784 (2)
Departure: Munich Airport (EDDM) at 07:00
Arrival: Marsa Alam International Airport (HEMA) at 11:20
Route: Lufthansa Passenger Schedule. Enter filed route here before submitting Pirep.

Weather Information
Getting current METAR information for EDDM 240150Z 22002KT CAVOK 10/10 Q1009 NOSIG
Getting current METAR information for HEMA 240200Z 33017KT CAVOK 29/16 Q1008 NOSIG

Schedule Frequency

Route Map